Weather at Narita International Airport

Public forecast

Using degrees Celsius for public forecast. Weather courtesy of forecast.io.

Current aviation weather report (METAR) for Narita International Airport

Retrieved 2020/10/30 23:30 UTC (28 minutes ago):

RJAA 302330Z 32007KT 9999 FEW030 12/06 Q1025 NOSIG

Aviation forecast (TAF) for Narita International Airport

Retrieved 2020/10/30 18:12 UTC (6 hours ago):

TAF RJAA 301706Z 3018/0100 36010KT 9999 FEW030